sensor_id;sensor_type;location;lat;lon;timestamp;P1;durP1;ratioP1;P2;durP2;ratioP2
33413;SDS011;60055;41.884;12.534;2024-02-28T00:02:04;23.35;;;7.25;;
33413;SDS011;60055;41.884;12.534;2024-02-28T00:04:30;24.45;;;7.30;;
33413;SDS011;60055;41.884;12.534;2024-02-28T00:06:55;18.35;;;7.28;;
33413;SDS011;60055;41.884;12.534;2024-02-28T00:09:20;20.42;;;7.03;;
33413;SDS011;60055;41.884;12.534;2024-02-28T00:11:46;18.55;;;6.68;;
33413;SDS011;60055;41.884;12.534;2024-02-28T00:14:14;25.05;;;7.53;;
33413;SDS011;60055;41.884;12.534;2024-02-28T00:16:40;21.75;;;6.95;;
33413;SDS011;60055;41.884;12.534;2024-02-28T00:19:06;21.08;;;6.55;;
33413;SDS011;60055;41.884;12.534;2024-02-28T00:21:32;18.05;;;6.43;;
33413;SDS011;60055;41.884;12.534;2024-02-28T00:23:57;15.50;;;5.68;;
33413;SDS011;60055;41.884;12.534;2024-02-28T00:26:23;22.92;;;5.78;;
33413;SDS011;60055;41.884;12.534;2024-02-28T00:28:48;17.55;;;5.45;;
33413;SDS011;60055;41.884;12.534;2024-02-28T00:31:14;17.83;;;5.63;;
33413;SDS011;60055;41.884;12.534;2024-02-28T00:33:39;17.90;;;5.50;;
33413;SDS011;60055;41.884;12.534;2024-02-28T00:36:04;16.88;;;4.93;;
33413;SDS011;60055;41.884;12.534;2024-02-28T00:38:30;18.90;;;5.22;;
33413;SDS011;60055;41.884;12.534;2024-02-28T00:40:55;24.15;;;5.53;;
33413;SDS011;60055;41.884;12.534;2024-02-28T00:43:21;16.60;;;4.85;;
33413;SDS011;60055;41.884;12.534;2024-02-28T00:45:46;16.80;;;5.03;;
33413;SDS011;60055;41.884;12.534;2024-02-28T00:48:12;19.65;;;5.13;;
33413;SDS011;60055;41.884;12.534;2024-02-28T00:50:37;16.67;;;5.13;;
33413;SDS011;60055;41.884;12.534;2024-02-28T00:53:02;15.35;;;4.80;;
33413;SDS011;60055;41.884;12.534;2024-02-28T00:55:28;16.10;;;4.55;;
33413;SDS011;60055;41.884;12.534;2024-02-28T00:57:53;18.10;;;4.72;;
33413;SDS011;60055;41.884;12.534;2024-02-28T01:00:19;15.18;;;4.68;;
33413;SDS011;60055;41.884;12.534;2024-02-28T01:02:44;18.85;;;4.82;;
33413;SDS011;60055;41.884;12.534;2024-02-28T01:05:10;17.90;;;5.28;;
33413;SDS011;60055;41.884;12.534;2024-02-28T01:07:35;20.33;;;6.00;;
33413;SDS011;60055;41.884;12.534;2024-02-28T01:10:01;19.63;;;5.07;;
33413;SDS011;60055;41.884;12.534;2024-02-28T01:12:27;21.30;;;4.78;;
33413;SDS011;60055;41.884;12.534;2024-02-28T01:14:53;19.98;;;5.15;;
33413;SDS011;60055;41.884;12.534;2024-02-28T01:17:18;17.10;;;5.55;;
33413;SDS011;60055;41.884;12.534;2024-02-28T01:19:44;20.13;;;5.07;;
33413;SDS011;60055;41.884;12.534;2024-02-28T01:22:09;19.23;;;5.25;;
33413;SDS011;60055;41.884;12.534;2024-02-28T01:24:35;18.70;;;5.35;;
33413;SDS011;60055;41.884;12.534;2024-02-28T01:27:01;17.98;;;5.50;;
33413;SDS011;60055;41.884;12.534;2024-02-28T01:29:27;23.80;;;4.97;;
33413;SDS011;60055;41.884;12.534;2024-02-28T01:31:53;23.00;;;4.72;;
33413;SDS011;60055;41.884;12.534;2024-02-28T01:34:19;18.10;;;4.10;;
33413;SDS011;60055;41.884;12.534;2024-02-28T01:36:44;15.82;;;3.72;;
33413;SDS011;60055;41.884;12.534;2024-02-28T01:39:10;16.98;;;3.85;;
33413;SDS011;60055;41.884;12.534;2024-02-28T01:41:35;22.13;;;5.00;;
33413;SDS011;60055;41.884;12.534;2024-02-28T01:44:01;19.70;;;4.32;;
33413;SDS011;60055;41.884;12.534;2024-02-28T01:46:26;23.25;;;4.40;;
33413;SDS011;60055;41.884;12.534;2024-02-28T01:48:53;22.08;;;4.50;;
33413;SDS011;60055;41.884;12.534;2024-02-28T01:51:20;27.75;;;4.72;;
33413;SDS011;60055;41.884;12.534;2024-02-28T01:53:47;23.95;;;4.40;;
33413;SDS011;60055;41.884;12.534;2024-02-28T01:56:15;19.88;;;4.45;;
33413;SDS011;60055;41.884;12.534;2024-02-28T01:58:42;23.52;;;4.22;;
33413;SDS011;60055;41.884;12.534;2024-02-28T02:01:10;24.35;;;4.63;;
33413;SDS011;60055;41.884;12.534;2024-02-28T02:03:36;21.95;;;4.40;;
33413;SDS011;60055;41.884;12.534;2024-02-28T02:06:02;22.80;;;4.97;;
33413;SDS011;60055;41.884;12.534;2024-02-28T02:08:28;20.58;;;4.05;;
33413;SDS011;60055;41.884;12.534;2024-02-28T02:10:54;20.48;;;4.57;;
33413;SDS011;60055;41.884;12.534;2024-02-28T02:13:19;19.00;;;4.13;;
33413;SDS011;60055;41.884;12.534;2024-02-28T02:15:45;23.63;;;4.63;;
33413;SDS011;60055;41.884;12.534;2024-02-28T02:18:10;22.40;;;4.40;;
33413;SDS011;60055;41.884;12.534;2024-02-28T02:20:36;26.83;;;4.50;;
33413;SDS011;60055;41.884;12.534;2024-02-28T02:23:05;28.67;;;4.53;;
33413;SDS011;60055;41.884;12.534;2024-02-28T02:25:31;22.98;;;5.22;;
33413;SDS011;60055;41.884;12.534;2024-02-28T02:27:56;25.25;;;4.60;;
33413;SDS011;60055;41.884;12.534;2024-02-28T02:30:22;27.88;;;4.88;;
33413;SDS011;60055;41.884;12.534;2024-02-28T02:32:47;26.00;;;5.13;;
33413;SDS011;60055;41.884;12.534;2024-02-28T02:35:13;21.33;;;5.13;;
33413;SDS011;60055;41.884;12.534;2024-02-28T02:37:42;21.85;;;4.30;;
33413;SDS011;60055;41.884;12.534;2024-02-28T02:40:10;25.50;;;4.60;;
33413;SDS011;60055;41.884;12.534;2024-02-28T02:42:37;31.20;;;5.25;;
33413;SDS011;60055;41.884;12.534;2024-02-28T02:45:02;27.52;;;4.70;;
33413;SDS011;60055;41.884;12.534;2024-02-28T02:47:28;26.48;;;4.50;;
33413;SDS011;60055;41.884;12.534;2024-02-28T02:49:54;27.00;;;4.90;;
33413;SDS011;60055;41.884;12.534;2024-02-28T02:52:19;27.98;;;4.93;;
33413;SDS011;60055;41.884;12.534;2024-02-28T02:54:44;28.80;;;5.60;;
33413;SDS011;60055;41.884;12.534;2024-02-28T02:57:10;35.60;;;5.40;;
33413;SDS011;60055;41.884;12.534;2024-02-28T02:59:35;36.33;;;5.78;;
33413;SDS011;60055;41.884;12.534;2024-02-28T03:02:01;27.80;;;5.65;;
33413;SDS011;60055;41.884;12.534;2024-02-28T03:04:26;32.58;;;5.40;;
33413;SDS011;60055;41.884;12.534;2024-02-28T03:06:52;35.80;;;5.63;;
33413;SDS011;60055;41.884;12.534;2024-02-28T03:09:17;39.00;;;6.25;;
33413;SDS011;60055;41.884;12.534;2024-02-28T03:11:42;37.10;;;6.25;;
33413;SDS011;60055;41.884;12.534;2024-02-28T03:14:08;38.22;;;6.03;;
33413;SDS011;60055;41.884;12.534;2024-02-28T03:16:33;38.92;;;6.40;;
33413;SDS011;60055;41.884;12.534;2024-02-28T03:19:02;37.35;;;5.13;;
33413;SDS011;60055;41.884;12.534;2024-02-28T03:21:28;40.53;;;6.28;;
33413;SDS011;60055;41.884;12.534;2024-02-28T03:23:53;35.92;;;5.53;;
33413;SDS011;60055;41.884;12.534;2024-02-28T03:26:19;30.60;;;5.90;;
33413;SDS011;60055;41.884;12.534;2024-02-28T03:28:44;40.42;;;5.60;;
33413;SDS011;60055;41.884;12.534;2024-02-28T03:31:09;32.88;;;5.65;;
33413;SDS011;60055;41.884;12.534;2024-02-28T03:33:35;31.13;;;5.95;;
33413;SDS011;60055;41.884;12.534;2024-02-28T03:36:00;39.13;;;5.55;;
33413;SDS011;60055;41.884;12.534;2024-02-28T03:38:27;28.23;;;5.25;;
33413;SDS011;60055;41.884;12.534;2024-02-28T03:40:52;36.42;;;5.80;;
33413;SDS011;60055;41.884;12.534;2024-02-28T03:43:18;32.08;;;5.13;;
33413;SDS011;60055;41.884;12.534;2024-02-28T03:45:43;31.15;;;4.97;;
33413;SDS011;60055;41.884;12.534;2024-02-28T03:48:08;37.20;;;6.15;;
33413;SDS011;60055;41.884;12.534;2024-02-28T03:50:34;37.50;;;6.03;;
33413;SDS011;60055;41.884;12.534;2024-02-28T03:52:59;30.60;;;5.20;;
33413;SDS011;60055;41.884;12.534;2024-02-28T03:55:25;37.65;;;5.53;;
33413;SDS011;60055;41.884;12.534;2024-02-28T03:57:50;36.72;;;5.40;;
33413;SDS011;60055;41.884;12.534;2024-02-28T04:00:17;33.88;;;5.32;;
33413;SDS011;60055;41.884;12.534;2024-02-28T04:02:42;37.63;;;5.57;;
33413;SDS011;60055;41.884;12.534;2024-02-28T04:05:08;30.42;;;4.75;;
33413;SDS011;60055;41.884;12.534;2024-02-28T04:07:33;29.77;;;5.47;;
33413;SDS011;60055;41.884;12.534;2024-02-28T04:09:59;28.00;;;5.07;;
33413;SDS011;60055;41.884;12.534;2024-02-28T04:12:24;33.15;;;4.90;;
33413;SDS011;60055;41.884;12.534;2024-02-28T04:14:50;40.50;;;5.40;;
33413;SDS011;60055;41.884;12.534;2024-02-28T04:17:15;30.23;;;5.47;;
33413;SDS011;60055;41.884;12.534;2024-02-28T04:19:40;32.10;;;5.20;;
33413;SDS011;60055;41.884;12.534;2024-02-28T04:22:06;37.28;;;5.78;;
33413;SDS011;60055;41.884;12.534;2024-02-28T04:24:31;43.65;;;5.53;;
33413;SDS011;60055;41.884;12.534;2024-02-28T04:26:57;33.35;;;5.53;;
33413;SDS011;60055;41.884;12.534;2024-02-28T04:29:24;31.45;;;5.57;;
33413;SDS011;60055;41.884;12.534;2024-02-28T04:31:50;31.17;;;5.50;;
33413;SDS011;60055;41.884;12.534;2024-02-28T04:34:15;35.38;;;5.93;;
33413;SDS011;60055;41.884;12.534;2024-02-28T04:36:41;41.47;;;5.85;;
33413;SDS011;60055;41.884;12.534;2024-02-28T04:39:06;35.63;;;5.45;;
33413;SDS011;60055;41.884;12.534;2024-02-28T04:41:32;31.92;;;5.45;;
33413;SDS011;60055;41.884;12.534;2024-02-28T04:43:59;38.78;;;5.75;;
33413;SDS011;60055;41.884;12.534;2024-02-28T04:46:24;48.38;;;6.35;;
33413;SDS011;60055;41.884;12.534;2024-02-28T04:48:50;39.53;;;5.97;;
33413;SDS011;60055;41.884;12.534;2024-02-28T04:51:15;37.53;;;6.13;;
33413;SDS011;60055;41.884;12.534;2024-02-28T04:53:42;39.42;;;6.25;;
33413;SDS011;60055;41.884;12.534;2024-02-28T04:56:08;44.20;;;6.15;;
33413;SDS011;60055;41.884;12.534;2024-02-28T04:58:35;40.97;;;6.78;;
33413;SDS011;60055;41.884;12.534;2024-02-28T05:01:00;40.22;;;6.45;;
33413;SDS011;60055;41.884;12.534;2024-02-28T05:03:26;38.35;;;5.97;;
33413;SDS011;60055;41.884;12.534;2024-02-28T05:05:51;41.03;;;6.25;;
33413;SDS011;60055;41.884;12.534;2024-02-28T05:08:19;47.53;;;6.55;;
33413;SDS011;60055;41.884;12.534;2024-02-28T05:10:45;38.65;;;6.15;;
33413;SDS011;60055;41.884;12.534;2024-02-28T05:13:10;43.50;;;6.75;;
33413;SDS011;60055;41.884;12.534;2024-02-28T05:15:36;40.63;;;6.53;;
33413;SDS011;60055;41.884;12.534;2024-02-28T05:18:01;43.95;;;6.70;;
33413;SDS011;60055;41.884;12.534;2024-02-28T05:20:27;38.55;;;6.50;;
33413;SDS011;60055;41.884;12.534;2024-02-28T05:22:53;53.88;;;7.22;;
33413;SDS011;60055;41.884;12.534;2024-02-28T05:25:18;53.42;;;7.38;;
33413;SDS011;60055;41.884;12.534;2024-02-28T05:27:44;55.67;;;7.97;;
33413;SDS011;60055;41.884;12.534;2024-02-28T05:30:09;45.80;;;7.07;;
33413;SDS011;60055;41.884;12.534;2024-02-28T05:32:35;60.25;;;8.02;;
33413;SDS011;60055;41.884;12.534;2024-02-28T05:35:01;49.58;;;7.38;;
33413;SDS011;60055;41.884;12.534;2024-02-28T05:37:26;52.95;;;7.07;;
33413;SDS011;60055;41.884;12.534;2024-02-28T05:39:51;49.30;;;7.43;;
33413;SDS011;60055;41.884;12.534;2024-02-28T05:42:17;52.40;;;7.22;;
33413;SDS011;60055;41.884;12.534;2024-02-28T05:44:47;49.85;;;7.47;;
33413;SDS011;60055;41.884;12.534;2024-02-28T05:47:13;51.72;;;7.20;;
33413;SDS011;60055;41.884;12.534;2024-02-28T05:49:39;57.17;;;7.60;;
33413;SDS011;60055;41.884;12.534;2024-02-28T05:52:04;57.30;;;8.60;;
33413;SDS011;60055;41.884;12.534;2024-02-28T05:54:30;55.05;;;7.63;;
33413;SDS011;60055;41.884;12.534;2024-02-28T05:56:56;55.50;;;7.95;;
33413;SDS011;60055;41.884;12.534;2024-02-28T05:59:21;54.58;;;7.63;;
33413;SDS011;60055;41.884;12.534;2024-02-28T06:01:46;45.05;;;7.63;;
33413;SDS011;60055;41.884;12.534;2024-02-28T06:04:12;59.38;;;8.73;;
33413;SDS011;60055;41.884;12.534;2024-02-28T06:06:38;56.50;;;7.45;;
33413;SDS011;60055;41.884;12.534;2024-02-28T06:09:03;55.88;;;7.70;;
33413;SDS011;60055;41.884;12.534;2024-02-28T06:11:29;70.50;;;8.20;;
33413;SDS011;60055;41.884;12.534;2024-02-28T06:13:54;66.97;;;12.35;;
33413;SDS011;60055;41.884;12.534;2024-02-28T06:16:20;48.92;;;8.30;;
33413;SDS011;60055;41.884;12.534;2024-02-28T06:18:45;52.03;;;7.70;;
33413;SDS011;60055;41.884;12.534;2024-02-28T06:21:10;51.08;;;7.63;;
33413;SDS011;60055;41.884;12.534;2024-02-28T06:23:38;47.25;;;7.30;;
33413;SDS011;60055;41.884;12.534;2024-02-28T06:26:03;53.95;;;7.47;;
33413;SDS011;60055;41.884;12.534;2024-02-28T06:28:29;50.47;;;7.78;;
33413;SDS011;60055;41.884;12.534;2024-02-28T06:30:54;58.58;;;8.40;;
33413;SDS011;60055;41.884;12.534;2024-02-28T06:33:20;46.65;;;7.80;;
33413;SDS011;60055;41.884;12.534;2024-02-28T06:35:45;46.33;;;7.82;;
33413;SDS011;60055;41.884;12.534;2024-02-28T06:38:10;46.45;;;7.38;;
33413;SDS011;60055;41.884;12.534;2024-02-28T06:40:36;51.60;;;8.10;;
33413;SDS011;60055;41.884;12.534;2024-02-28T06:43:02;59.15;;;11.18;;
33413;SDS011;60055;41.884;12.534;2024-02-28T06:45:28;42.22;;;7.72;;
33413;SDS011;60055;41.884;12.534;2024-02-28T06:47:53;53.92;;;8.25;;
33413;SDS011;60055;41.884;12.534;2024-02-28T06:50:18;51.53;;;7.50;;
33413;SDS011;60055;41.884;12.534;2024-02-28T06:52:44;51.53;;;8.02;;
33413;SDS011;60055;41.884;12.534;2024-02-28T06:55:09;46.78;;;6.97;;
33413;SDS011;60055;41.884;12.534;2024-02-28T06:57:39;43.67;;;8.05;;
33413;SDS011;60055;41.884;12.534;2024-02-28T07:00:05;42.67;;;8.35;;
33413;SDS011;60055;41.884;12.534;2024-02-28T07:02:33;50.63;;;8.25;;
33413;SDS011;60055;41.884;12.534;2024-02-28T07:05:00;52.67;;;7.63;;
33413;SDS011;60055;41.884;12.534;2024-02-28T07:07:25;48.60;;;7.68;;
33413;SDS011;60055;41.884;12.534;2024-02-28T07:09:51;45.30;;;7.60;;
33413;SDS011;60055;41.884;12.534;2024-02-28T07:12:16;42.33;;;6.57;;
33413;SDS011;60055;41.884;12.534;2024-02-28T07:14:41;46.40;;;7.22;;
33413;SDS011;60055;41.884;12.534;2024-02-28T07:17:07;43.72;;;7.78;;
33413;SDS011;60055;41.884;12.534;2024-02-28T07:19:32;44.53;;;8.18;;
33413;SDS011;60055;41.884;12.534;2024-02-28T07:21:58;54.55;;;9.77;;
33413;SDS011;60055;41.884;12.534;2024-02-28T07:24:23;48.00;;;7.03;;
33413;SDS011;60055;41.884;12.534;2024-02-28T07:26:49;38.22;;;7.22;;
33413;SDS011;60055;41.884;12.534;2024-02-28T07:29:16;38.97;;;6.65;;
33413;SDS011;60055;41.884;12.534;2024-02-28T07:31:41;37.80;;;7.30;;
33413;SDS011;60055;41.884;12.534;2024-02-28T07:34:06;37.47;;;6.88;;
33413;SDS011;60055;41.884;12.534;2024-02-28T07:36:33;38.53;;;8.02;;
33413;SDS011;60055;41.884;12.534;2024-02-28T07:38:59;38.55;;;7.28;;
33413;SDS011;60055;41.884;12.534;2024-02-28T07:41:24;41.78;;;7.30;;
33413;SDS011;60055;41.884;12.534;2024-02-28T07:43:50;38.55;;;6.75;;
33413;SDS011;60055;41.884;12.534;2024-02-28T07:46:15;49.38;;;7.10;;
33413;SDS011;60055;41.884;12.534;2024-02-28T07:48:41;48.20;;;7.53;;
33413;SDS011;60055;41.884;12.534;2024-02-28T07:51:07;41.42;;;7.65;;
33413;SDS011;60055;41.884;12.534;2024-02-28T07:53:33;49.55;;;7.57;;
33413;SDS011;60055;41.884;12.534;2024-02-28T07:55:59;38.50;;;7.20;;
33413;SDS011;60055;41.884;12.534;2024-02-28T07:58:24;41.05;;;7.28;;
33413;SDS011;60055;41.884;12.534;2024-02-28T08:00:50;54.08;;;7.40;;
33413;SDS011;60055;41.884;12.534;2024-02-28T08:03:17;40.25;;;7.43;;
33413;SDS011;60055;41.884;12.534;2024-02-28T08:05:43;42.15;;;7.03;;
33413;SDS011;60055;41.884;12.534;2024-02-28T08:08:09;47.75;;;8.40;;
33413;SDS011;60055;41.884;12.534;2024-02-28T08:10:36;44.13;;;7.43;;
33413;SDS011;60055;41.884;12.534;2024-02-28T08:13:03;46.45;;;8.07;;
33413;SDS011;60055;41.884;12.534;2024-02-28T08:15:29;39.05;;;7.53;;
33413;SDS011;60055;41.884;12.534;2024-02-28T08:17:54;54.65;;;8.35;;
33413;SDS011;60055;41.884;12.534;2024-02-28T08:20:20;65.38;;;8.85;;
33413;SDS011;60055;41.884;12.534;2024-02-28T08:22:45;48.10;;;7.85;;
33413;SDS011;60055;41.884;12.534;2024-02-28T08:25:11;50.13;;;7.78;;
33413;SDS011;60055;41.884;12.534;2024-02-28T08:27:37;56.97;;;7.47;;
33413;SDS011;60055;41.884;12.534;2024-02-28T08:30:04;52.80;;;7.57;;
33413;SDS011;60055;41.884;12.534;2024-02-28T08:32:31;53.03;;;7.28;;
33413;SDS011;60055;41.884;12.534;2024-02-28T08:34:56;52.13;;;6.90;;
33413;SDS011;60055;41.884;12.534;2024-02-28T08:37:23;42.25;;;7.05;;
33413;SDS011;60055;41.884;12.534;2024-02-28T08:39:48;44.30;;;6.88;;
33413;SDS011;60055;41.884;12.534;2024-02-28T08:42:14;38.45;;;6.72;;
33413;SDS011;60055;41.884;12.534;2024-02-28T08:44:39;33.80;;;6.07;;
33413;SDS011;60055;41.884;12.534;2024-02-28T08:47:05;45.55;;;7.47;;
33413;SDS011;60055;41.884;12.534;2024-02-28T08:49:32;39.90;;;7.18;;
33413;SDS011;60055;41.884;12.534;2024-02-28T08:51:58;45.50;;;7.50;;
33413;SDS011;60055;41.884;12.534;2024-02-28T08:54:23;38.58;;;7.07;;
33413;SDS011;60055;41.884;12.534;2024-02-28T08:56:50;47.08;;;7.45;;
33413;SDS011;60055;41.884;12.534;2024-02-28T08:59:16;41.03;;;6.63;;
33413;SDS011;60055;41.884;12.534;2024-02-28T09:01:41;36.40;;;6.88;;
33413;SDS011;60055;41.884;12.534;2024-02-28T09:04:07;39.33;;;7.15;;
33413;SDS011;60055;41.884;12.534;2024-02-28T09:06:32;35.72;;;7.03;;
33413;SDS011;60055;41.884;12.534;2024-02-28T09:08:58;40.58;;;7.18;;
33413;SDS011;60055;41.884;12.534;2024-02-28T09:11:23;38.10;;;6.43;;
33413;SDS011;60055;41.884;12.534;2024-02-28T09:13:50;33.33;;;6.40;;
33413;SDS011;60055;41.884;12.534;2024-02-28T09:16:15;35.30;;;6.40;;
33413;SDS011;60055;41.884;12.534;2024-02-28T09:18:41;43.08;;;6.88;;
33413;SDS011;60055;41.884;12.534;2024-02-28T09:21:07;38.13;;;6.97;;
33413;SDS011;60055;41.884;12.534;2024-02-28T09:23:33;37.58;;;6.70;;
33413;SDS011;60055;41.884;12.534;2024-02-28T09:26:02;32.30;;;6.50;;
33413;SDS011;60055;41.884;12.534;2024-02-28T09:28:28;43.35;;;6.35;;
33413;SDS011;60055;41.884;12.534;2024-02-28T09:30:54;39.70;;;6.70;;
33413;SDS011;60055;41.884;12.534;2024-02-28T09:33:19;40.92;;;7.20;;
33413;SDS011;60055;41.884;12.534;2024-02-28T09:35:45;36.03;;;6.85;;
33413;SDS011;60055;41.884;12.534;2024-02-28T09:38:10;29.20;;;6.45;;
33413;SDS011;60055;41.884;12.534;2024-02-28T09:40:36;39.03;;;6.72;;
33413;SDS011;60055;41.884;12.534;2024-02-28T09:43:02;36.47;;;6.88;;
33413;SDS011;60055;41.884;12.534;2024-02-28T09:45:29;41.00;;;7.00;;
33413;SDS011;60055;41.884;12.534;2024-02-28T09:47:59;47.22;;;6.97;;
33413;SDS011;60055;41.884;12.534;2024-02-28T09:50:28;38.53;;;6.68;;
33413;SDS011;60055;41.884;12.534;2024-02-28T09:52:55;37.63;;;6.45;;
33413;SDS011;60055;41.884;12.534;2024-02-28T09:55:21;34.25;;;7.28;;
33413;SDS011;60055;41.884;12.534;2024-02-28T09:57:47;35.90;;;6.78;;
33413;SDS011;60055;41.884;12.534;2024-02-28T10:00:14;41.42;;;7.53;;
33413;SDS011;60055;41.884;12.534;2024-02-28T10:02:41;36.17;;;7.68;;
33413;SDS011;60055;41.884;12.534;2024-02-28T10:05:08;42.65;;;7.15;;
33413;SDS011;60055;41.884;12.534;2024-02-28T10:07:35;34.75;;;6.90;;
33413;SDS011;60055;41.884;12.534;2024-02-28T10:10:01;39.78;;;7.20;;
33413;SDS011;60055;41.884;12.534;2024-02-28T10:12:26;47.53;;;7.47;;
33413;SDS011;60055;41.884;12.534;2024-02-28T10:14:51;43.00;;;8.05;;
33413;SDS011;60055;41.884;12.534;2024-02-28T10:17:17;42.85;;;7.40;;
33413;SDS011;60055;41.884;12.534;2024-02-28T10:19:43;44.72;;;7.10;;
33413;SDS011;60055;41.884;12.534;2024-02-28T10:22:08;31.25;;;6.82;;
33413;SDS011;60055;41.884;12.534;2024-02-28T10:24:34;38.15;;;6.95;;
33413;SDS011;60055;41.884;12.534;2024-02-28T10:27:00;42.25;;;7.13;;
33413;SDS011;60055;41.884;12.534;2024-02-28T10:29:26;39.92;;;7.68;;
33413;SDS011;60055;41.884;12.534;2024-02-28T10:31:57;41.25;;;7.53;;
33413;SDS011;60055;41.884;12.534;2024-02-28T10:34:28;32.95;;;6.13;;
33413;SDS011;60055;41.884;12.534;2024-02-28T10:36:54;35.20;;;7.10;;
33413;SDS011;60055;41.884;12.534;2024-02-28T10:39:22;35.72;;;6.40;;
33413;SDS011;60055;41.884;12.534;2024-02-28T10:41:51;39.60;;;6.47;;
33413;SDS011;60055;41.884;12.534;2024-02-28T10:44:18;31.33;;;6.30;;
33413;SDS011;60055;41.884;12.534;2024-02-28T10:46:48;40.50;;;6.10;;
33413;SDS011;60055;41.884;12.534;2024-02-28T10:49:15;40.28;;;7.38;;
33413;SDS011;60055;41.884;12.534;2024-02-28T10:51:40;40.00;;;6.43;;
33413;SDS011;60055;41.884;12.534;2024-02-28T10:54:11;39.05;;;6.55;;
33413;SDS011;60055;41.884;12.534;2024-02-28T10:56:38;33.90;;;6.50;;
33413;SDS011;60055;41.884;12.534;2024-02-28T10:59:07;36.17;;;6.22;;
33413;SDS011;60055;41.884;12.534;2024-02-28T11:01:37;44.22;;;6.72;;
33413;SDS011;60055;41.884;12.534;2024-02-28T11:04:06;33.23;;;6.77;;
33413;SDS011;60055;41.884;12.534;2024-02-28T11:06:35;33.70;;;6.72;;
33413;SDS011;60055;41.884;12.534;2024-02-28T11:09:18;36.72;;;6.30;;
33413;SDS011;60055;41.884;12.534;2024-02-28T11:11:45;39.60;;;6.32;;
33413;SDS011;60055;41.884;12.534;2024-02-28T11:14:14;40.40;;;6.50;;
33413;SDS011;60055;41.884;12.534;2024-02-28T11:16:40;28.98;;;5.57;;
33413;SDS011;60055;41.884;12.534;2024-02-28T11:19:09;41.75;;;6.75;;
33413;SDS011;60055;41.884;12.534;2024-02-28T11:21:46;44.00;;;6.00;;
33413;SDS011;60055;41.884;12.534;2024-02-28T11:24:22;34.27;;;5.90;;
33413;SDS011;60055;41.884;12.534;2024-02-28T11:26:48;37.05;;;5.70;;
33413;SDS011;60055;41.884;12.534;2024-02-28T11:29:13;40.72;;;6.18;;
33413;SDS011;60055;41.884;12.534;2024-02-28T11:31:39;35.80;;;5.80;;
33413;SDS011;60055;41.884;12.534;2024-02-28T11:34:04;38.33;;;5.57;;
33413;SDS011;60055;41.884;12.534;2024-02-28T11:36:30;33.30;;;5.80;;
33413;SDS011;60055;41.884;12.534;2024-02-28T11:38:56;32.35;;;5.38;;
33413;SDS011;60055;41.884;12.534;2024-02-28T11:41:28;28.05;;;5.70;;
33413;SDS011;60055;41.884;12.534;2024-02-28T11:43:53;32.72;;;5.28;;
33413;SDS011;60055;41.884;12.534;2024-02-28T11:46:19;29.35;;;5.18;;
33413;SDS011;60055;41.884;12.534;2024-02-28T11:48:44;33.72;;;5.30;;
33413;SDS011;60055;41.884;12.534;2024-02-28T11:51:10;24.63;;;5.00;;
33413;SDS011;60055;41.884;12.534;2024-02-28T11:53:35;35.63;;;5.20;;
33413;SDS011;60055;41.884;12.534;2024-02-28T11:56:01;32.92;;;5.50;;
33413;SDS011;60055;41.884;12.534;2024-02-28T11:58:26;36.45;;;5.07;;
33413;SDS011;60055;41.884;12.534;2024-02-28T12:00:52;39.17;;;5.53;;
33413;SDS011;60055;41.884;12.534;2024-02-28T12:03:21;40.45;;;5.68;;
33413;SDS011;60055;41.884;12.534;2024-02-28T12:05:47;31.50;;;6.30;;
33413;SDS011;60055;41.884;12.534;2024-02-28T12:08:12;38.92;;;5.72;;
33413;SDS011;60055;41.884;12.534;2024-02-28T12:10:38;37.00;;;7.05;;
33413;SDS011;60055;41.884;12.534;2024-02-28T12:13:04;32.55;;;5.72;;
33413;SDS011;60055;41.884;12.534;2024-02-28T12:15:30;30.20;;;5.47;;
33413;SDS011;60055;41.884;12.534;2024-02-28T12:17:56;35.50;;;5.88;;
33413;SDS011;60055;41.884;12.534;2024-02-28T12:20:23;31.45;;;5.78;;
33413;SDS011;60055;41.884;12.534;2024-02-28T12:22:48;33.97;;;5.93;;
33413;SDS011;60055;41.884;12.534;2024-02-28T12:25:14;38.72;;;6.20;;
33413;SDS011;60055;41.884;12.534;2024-02-28T12:27:40;27.40;;;5.35;;
33413;SDS011;60055;41.884;12.534;2024-02-28T12:30:06;24.83;;;5.50;;
33413;SDS011;60055;41.884;12.534;2024-02-28T12:32:32;27.23;;;5.25;;
33413;SDS011;60055;41.884;12.534;2024-02-28T12:34:57;35.47;;;6.07;;
33413;SDS011;60055;41.884;12.534;2024-02-28T12:37:22;18.15;;;5.40;;
33413;SDS011;60055;41.884;12.534;2024-02-28T12:39:48;33.42;;;6.03;;
33413;SDS011;60055;41.884;12.534;2024-02-28T12:42:13;33.40;;;5.72;;
33413;SDS011;60055;41.884;12.534;2024-02-28T12:44:39;28.55;;;5.82;;
33413;SDS011;60055;41.884;12.534;2024-02-28T12:47:05;33.40;;;6.00;;
33413;SDS011;60055;41.884;12.534;2024-02-28T12:49:31;28.67;;;5.97;;
33413;SDS011;60055;41.884;12.534;2024-02-28T12:51:57;31.38;;;5.70;;
33413;SDS011;60055;41.884;12.534;2024-02-28T12:54:22;37.53;;;8.52;;
33413;SDS011;60055;41.884;12.534;2024-02-28T12:56:48;27.63;;;5.97;;
33413;SDS011;60055;41.884;12.534;2024-02-28T12:59:14;36.47;;;5.63;;
33413;SDS011;60055;41.884;12.534;2024-02-28T13:01:40;31.55;;;6.25;;
33413;SDS011;60055;41.884;12.534;2024-02-28T13:04:06;43.72;;;11.13;;
33413;SDS011;60055;41.884;12.534;2024-02-28T13:06:31;35.03;;;9.43;;
33413;SDS011;60055;41.884;12.534;2024-02-28T13:08:57;26.98;;;5.40;;
33413;SDS011;60055;41.884;12.534;2024-02-28T13:11:23;24.50;;;5.05;;
33413;SDS011;60055;41.884;12.534;2024-02-28T13:13:49;25.55;;;4.93;;
33413;SDS011;60055;41.884;12.534;2024-02-28T13:16:19;26.13;;;5.28;;
33413;SDS011;60055;41.884;12.534;2024-02-28T13:18:45;30.73;;;5.13;;
33413;SDS011;60055;41.884;12.534;2024-02-28T13:21:11;27.35;;;5.68;;
33413;SDS011;60055;41.884;12.534;2024-02-28T13:23:37;26.13;;;5.20;;
33413;SDS011;60055;41.884;12.534;2024-02-28T13:26:03;28.92;;;5.85;;
33413;SDS011;60055;41.884;12.534;2024-02-28T13:28:32;26.80;;;4.97;;
33413;SDS011;60055;41.884;12.534;2024-02-28T13:31:01;38.17;;;6.03;;
33413;SDS011;60055;41.884;12.534;2024-02-28T13:33:29;33.78;;;5.55;;
33413;SDS011;60055;41.884;12.534;2024-02-28T13:35:54;35.47;;;5.75;;
33413;SDS011;60055;41.884;12.534;2024-02-28T13:38:20;35.80;;;6.05;;
33413;SDS011;60055;41.884;12.534;2024-02-28T13:40:47;36.63;;;5.80;;
33413;SDS011;60055;41.884;12.534;2024-02-28T13:43:13;31.90;;;5.72;;
33413;SDS011;60055;41.884;12.534;2024-02-28T13:45:39;32.03;;;5.50;;
33413;SDS011;60055;41.884;12.534;2024-02-28T13:48:19;33.15;;;5.93;;
33413;SDS011;60055;41.884;12.534;2024-02-28T13:50:47;28.33;;;5.22;;
33413;SDS011;60055;41.884;12.534;2024-02-28T13:53:13;32.13;;;5.68;;
33413;SDS011;60055;41.884;12.534;2024-02-28T13:55:40;32.08;;;6.03;;
33413;SDS011;60055;41.884;12.534;2024-02-28T13:58:07;30.88;;;5.35;;
33413;SDS011;60055;41.884;12.534;2024-02-28T14:00:34;34.25;;;5.97;;
33413;SDS011;60055;41.884;12.534;2024-02-28T14:03:00;30.23;;;5.22;;
33413;SDS011;60055;41.884;12.534;2024-02-28T14:05:26;32.33;;;6.40;;
33413;SDS011;60055;41.884;12.534;2024-02-28T14:07:52;32.67;;;5.72;;
33413;SDS011;60055;41.884;12.534;2024-02-28T14:10:18;32.65;;;5.80;;
33413;SDS011;60055;41.884;12.534;2024-02-28T14:12:43;32.65;;;5.38;;
33413;SDS011;60055;41.884;12.534;2024-02-28T14:15:09;28.65;;;5.68;;